Ms Folla 2 — LLPD — position and weather

sailwx.info

Track history (hours):
 
Tides and Currents Weather Stations Pressure Air Temp Water Temp Dewpoint Dewpoint Depression Visibility Wind Speed Wind Dir Waves Ship Positions

Ms Folla 2

Last reported at 2016-Dec-06 11:27 UTC. Time now 2016-Dec-06 12:15 UTC.
Position N 66°30' E 012°59'.

Length 52 m; draft 5.5 m.

Type: Cargo ship. MMSI: 258253000.

Date/timePositionNaut miles runAvg speedWind from/ knotsBaromVisibWave heightAir tempDewpointWater temp
2016-Dec-06 11:27N 66°30' E 012°59'1310.0
2016-Dec-06 10:10N 66°42' E 013°10'810.5
2016-Dec-06 09:26N 66°50' E 013°16'9 9.8
2016-Dec-06 08:33N 66°57' E 013°29'1110.3
2016-Dec-06 07:32N 67°02' E 013°52'5 2.6
2016-Dec-06 05:27N 67°05' E 014°04'910.4
2016-Dec-06 04:33N 66°60' E 013°43'6 0.5
2016-Dec-05 16:29N 66°57' E 013°29'910.0
2016-Dec-05 15:33N 67°02' E 013°48'1111.1
2016-Dec-05 14:33N 67°11' E 014°06'10 9.6
2016-Dec-05 13:33N 67°18' E 014°24'1 1.0
2016-Dec-05 12:34N 67°18' E 014°23'1111.4
2016-Dec-05 11:33N 67°30' E 014°29'1311.5
2016-Dec-05 10:28N 67°42' E 014°31'96 9.3
2016-Dec-05 00:07N 68°60' E 017°03'810.2
2016-Dec-04 23:18N 69°04' E 017°23'811.1
2016-Dec-04 22:34N 69°08' E 017°43'9 8.6
2016-Dec-04 21:33N 69°15' E 017°58'2 0.1
2016-Dec-03 17:33N 69°17' E 017°58'3 3.4
2016-Dec-03 16:33N 69°14' E 017°59'7 7.2
2016-Dec-03 15:33N 69°08' E 017°45'1111.0
2016-Dec-03 14:33N 68°59' E 017°28'5 2.2
2016-Dec-03 12:21N 68°54' E 017°25'77 9.9
2016-Dec-03 04:32N 68°12' E 014°29'6 6.4
2016-Dec-03 03:33N 68°09' E 014°13'6 6.4
2016-Dec-03 02:33N 68°06' E 013°58'8 7.8
2016-Dec-03 01:32N 68°04' E 013°38'4 3.9
2016-Dec-03 00:32N 68°08' E 013°34'0 0.0
2016-Dec-02 23:32N 68°08' E 013°34'1 0.9
2016-Dec-02 22:33N 68°08' E 013°37'1 0.9
2016-Dec-02 21:33N 68°08' E 013°34'13 5.7
2016-Dec-02 19:20N 67°56' E 013°47'6 7.1
2016-Dec-02 18:32N 67°51' E 013°53'7 7.2
2016-Dec-02 17:33N 67°45' E 014°02'7 7.2
2016-Dec-02 16:32N 67°38' E 014°10'2 1.0
2016-Dec-02 14:33N 67°36' E 014°13'1111.0
2016-Dec-02 13:33N 67°26' E 014°25'1110.7
2016-Dec-02 12:33N 67°16' E 014°14'1312.3
2016-Dec-02 11:31N 67°06' E 013°57'1313.1
2016-Dec-02 10:31N 66°58' E 013°30'4748.9
2016-Dec-02 09:33N 66°19' E 012°23'2723.6
2016-Dec-02 08:23N 66°40' E 013°07'2 2.5
2016-Dec-02 07:30N 66°39' E 013°02'1010.7
2016-Dec-02 06:33N 66°30' E 012°49'1110.7
2016-Dec-02 05:33N 66°24' E 012°28'6 6.3
2016-Dec-02 04:33N 66°18' E 012°23'1010.0
2016-Dec-02 03:33N 66°10' E 012°39'3332.5
2016-Dec-02 02:33N 65°39' E 012°16'7 7.0
2016-Dec-02 01:32N 65°32' E 012°13'6 6.5
2016-Dec-02 00:33N 65°26' E 012°09'7 7.3
2016-Dec-01 23:33N 65°19' E 012°01'8 7.6
2016-Dec-01 22:33N 65°12' E 011°53'7 6.9
2016-Dec-01 21:33N 65°06' E 011°47'7 7.0
2016-Dec-01 20:31N 65°00' E 011°37'3 2.9
2016-Dec-01 19:25N 64°58' E 011°33'910.6
2016-Dec-01 18:33N 64°52' E 011°16'134130.9
2016-Dec-01 17:32N 66°49' E 013°56'0 0.0
2016-Dec-01 16:33N 66°49' E 013°56'0 0.0
2016-Dec-01 15:33N 66°49' E 013°56'0 0.0
2016-Dec-01 14:33N 66°49' E 013°56'4 3.8
2016-Dec-01 13:32N 66°49' E 013°46'8 7.6
2016-Dec-01 12:32N 66°48' E 013°27'11 5.1
2016-Dec-01 10:26N 66°58' E 013°34'6 7.1
2016-Dec-01 09:32N 67°02' E 013°47'8 7.7
2016-Dec-01 08:33N 67°07' E 014°00'8 7.8
2016-Dec-01 07:32N 67°14' E 014°12'6 5.9
2016-Dec-01 06:33N 67°17' E 014°24'2 1.9
2016-Dec-01 05:33N 67°19' E 014°23'6 5.7
2016-Dec-01 04:33N 67°25' E 014°25'1 0.8
2016-Dec-01 03:32N 67°26' E 014°27'7 7.7
2016-Dec-01 02:33N 67°33' E 014°30'8 7.6
2016-Dec-01 01:33N 67°41' E 014°31'8 7.7
2016-Dec-01 00:33N 67°48' E 014°33'8 7.9
2016-Nov-30 23:33N 67°53' E 014°50'7 7.2
2016-Nov-30 22:33N 67°54' E 015°09'4 4.1
2016-Nov-30 21:33N 67°56' E 015°19'5 5.3
2016-Nov-30 20:32N 68°01' E 015°20'5 5.1
2016-Nov-30 19:33N 68°06' E 015°18'8 7.9
2016-Nov-30 18:33N 68°12' E 015°32'8 7.8
2016-Nov-30 17:33N 68°17' E 015°48'7 6.8
2016-Nov-30 16:33N 68°21' E 016°02'247250.1
2016-Nov-30 15:33N 64°41' E 011°22'3 3.5
2016-Nov-30 14:34N 64°43' E 011°28'0 0.0
2016-Nov-30 13:33N 64°43' E 011°28'0 0.0
2016-Nov-30 12:34N 64°43' E 011°28'9 9.1
2016-Nov-30 11:33N 64°44' E 011°07'9 8.6
2016-Nov-30 10:33N 64°52' E 011°16'0 0.4
2016-Nov-30 09:34N 64°52' E 011°17'1 1.1
2016-Nov-30 08:33N 64°52' E 011°15'0 0.1
2016-Nov-30 07:33N 64°52' E 011°15'0 0.0
2016-Nov-30 06:34N 64°52' E 011°15'7 6.9
2016-Nov-30 05:34N 64°56' E 011°27'1010.3
2016-Nov-30 04:33N 65°03' E 011°44'238236.6
2016-Nov-30 03:33N 68°34' E 016°30'3 2.7
2016-Nov-30 02:33N 68°36' E 016°33'7 7.2
2016-Nov-30 01:33N 68°42' E 016°42'8 8.1
2016-Nov-30 00:33N 68°50' E 016°52'8 8.5
2016-Nov-29 23:33N 68°57' E 017°06'8 7.8
2016-Nov-29 22:32N 69°03' E 017°20'7 7.4
2016-Nov-29 21:33N 69°07' E 017°36'9 8.5
2016-Nov-29 20:33N 69°10' E 017°58'204202.9
2016-Nov-29 19:33N 66°21' E 012°57'226105.1
2016-Nov-29 17:24N 69°31' E 018°21'8 8.3
2016-Nov-29 16:27N 69°33' E 018°43'6 7.1
2016-Nov-29 15:33N 69°38' E 018°56'8 8.1
2016-Nov-29 14:33N 69°45' E 019°07'7 7.1
2016-Nov-29 13:33N 69°48' E 019°25'8 7.7
2016-Nov-29 12:33N 69°51' E 019°45'7 7.4
2016-Nov-29 11:33N 69°56' E 020°02'8 7.5
2016-Nov-29 10:33N 69°60' E 020°21'7 7.2
2016-Nov-29 09:33N 70°02' E 020°41'7 7.4
2016-Nov-29 08:32N 70°07' E 020°58'7 7.5
2016-Nov-29 07:33N 70°13' E 021°08'7 7.3
2016-Nov-29 06:33N 70°18' E 021°24'5 4.7
2016-Nov-29 05:33N 70°19' E 021°38'4 3.8
2016-Nov-29 04:33N 70°17' E 021°46'7 6.8
2016-Nov-29 03:33N 70°20' E 022°04'6 5.6
2016-Nov-29 02:33N 70°17' E 022°18'3 3.0
2016-Nov-29 01:33N 70°14' E 022°21'0 0.0
2016-Nov-29 00:32N 70°14' E 022°21'0 0.0
2016-Nov-28 23:33N 70°14' E 022°21'0 0.0
2016-Nov-28 22:32N 70°14' E 022°21'278245.9
2016-Nov-28 21:24N 66°55' E 013°30'7 8.5
2016-Nov-28 20:33N 66°60' E 013°43'1110.9
2016-Nov-28 19:33N 67°08' E 014°01'1110.8
2016-Nov-28 18:33N 67°16' E 014°19'3 3.2
2016-Nov-28 17:33N 67°19' E 014°23'6 5.7
2016-Nov-28 16:33N 67°25' E 014°25'20291.4
2016-Nov-28 14:21N 69°60' E 020°22'6 7.9
2016-Nov-28 13:33N 69°57' E 020°06'8 8.1
2016-Nov-28 12:33N 69°52' E 019°48'8 8.3
2016-Nov-28 11:32N 69°48' E 019°26'8 8.1
2016-Nov-28 10:32N 69°44' E 019°05'4 4.4
2016-Nov-28 09:33N 69°41' E 018°59'0 0.2
2016-Nov-28 08:33N 69°41' E 018°59'2 2.2
2016-Nov-28 07:33N 69°39' E 018°58'8 7.9
2016-Nov-28 06:32N 69°33' E 018°41'8 7.8
2016-Nov-28 05:33N 69°30' E 018°21'7 7.4
2016-Nov-28 04:33N 69°25' E 018°07'7 6.7
2016-Nov-28 03:33N 69°19' E 017°59'4 4.4
2016-Nov-28 02:33N 69°14' E 017°58'1 0.7
2016-Nov-28 01:33N 69°14' E 017°59'4 4.1
2016-Nov-28 00:33N 69°10' E 017°55'8 7.5
2016-Nov-27 23:32N 69°06' E 017°36'3026.8
2016-Nov-27 22:25N 68°43' E 016°43'2611.3
2016-Nov-27 20:07N 69°04' E 017°23'611.0
2016-Nov-27 19:33N 69°07' E 017°38'9 9.4
2016-Nov-27 18:33N 69°13' E 017°59'3938.9
2016-Nov-27 17:33N 68°48' E 016°34'0 0.5
2016-Nov-27 16:33N 68°48' E 016°33'16 6.9
2016-Nov-27 14:15N 68°58' E 015°60'6 8.0
2016-Nov-27 13:32N 68°59' E 015°44'5 4.9
2016-Nov-27 12:32N 68°55' E 015°35'8 7.9
2016-Nov-27 11:32N 68°48' E 015°26'6 5.9
2016-Nov-27 10:32N 68°42' E 015°25'0 0.0
2016-Nov-27 09:33N 68°42' E 015°25'21 6.6
2016-Nov-27 06:25N 68°23' E 015°04'10 8.0
2016-Nov-27 05:10N 68°14' E 014°54'4 6.9
2016-Nov-27 04:32N 68°14' E 014°42'3 2.8
2016-Nov-27 03:33N 68°14' E 014°35'3 2.8
2016-Nov-27 02:33N 68°12' E 014°30'8 7.3
2016-Nov-27 01:32N 68°08' E 014°12'7 7.2
2016-Nov-27 00:32N 68°15' E 014°14'6 5.2
2016-Nov-26 23:24N 68°10' E 014°07'6 7.1
2016-Nov-26 22:33N 68°06' E 013°54'7 6.7
2016-Nov-26 21:33N 68°04' E 013°37'4 3.9
2016-Nov-26 20:33N 68°08' E 013°34'0 0.0
2016-Nov-26 19:33N 68°08' E 013°34'0 0.0
2016-Nov-26 18:33N 68°08' E 013°34'1 0.6
2016-Nov-26 17:32N 68°08' E 013°36'15 7.6
2016-Nov-26 15:32N 67°53' E 013°34'12642.4
2016-Nov-26 12:33N 69°14' E 017°59'9 9.2
2016-Nov-26 11:33N 69°07' E 017°40'  
Track history (hours):
 
Tides and Currents Weather Stations Pressure Air Temp Water Temp Dewpoint Dewpoint Depression Visibility Wind Speed Wind Dir Waves Ship Positions

Ms Folla 2

Last reported at 2016-Dec-06 11:27 UTC. Time now 2016-Dec-06 12:15 UTC.
Position N 66°30' E 012°59'.

Length 52 m; draft 5.5 m.

Type: Cargo ship. MMSI: 258253000.

Date/timePositionNaut miles runAvg speedWind from/ knotsBaromVisibWave heightAir tempDewpointWater temp
2016-Dec-06 11:27N 66°30' E 012°59'1310.0
2016-Dec-06 10:10N 66°42' E 013°10'810.5
2016-Dec-06 09:26N 66°50' E 013°16'9 9.8
2016-Dec-06 08:33N 66°57' E 013°29'1110.3
2016-Dec-06 07:32N 67°02' E 013°52'5 2.6
2016-Dec-06 05:27N 67°05' E 014°04'910.4
2016-Dec-06 04:33N 66°60' E 013°43'6 0.5
2016-Dec-05 16:29N 66°57' E 013°29'910.0
2016-Dec-05 15:33N 67°02' E 013°48'1111.1
2016-Dec-05 14:33N 67°11' E 014°06'10 9.6
2016-Dec-05 13:33N 67°18' E 014°24'1 1.0
2016-Dec-05 12:34N 67°18' E 014°23'1111.4
2016-Dec-05 11:33N 67°30' E 014°29'1311.5
2016-Dec-05 10:28N 67°42' E 014°31'96 9.3
2016-Dec-05 00:07N 68°60' E 017°03'810.2
2016-Dec-04 23:18N 69°04' E 017°23'811.1
2016-Dec-04 22:34N 69°08' E 017°43'9 8.6
2016-Dec-04 21:33N 69°15' E 017°58'2 0.1
2016-Dec-03 17:33N 69°17' E 017°58'3 3.4
2016-Dec-03 16:33N 69°14' E 017°59'7 7.2
2016-Dec-03 15:33N 69°08' E 017°45'1111.0
2016-Dec-03 14:33N 68°59' E 017°28'5 2.2
2016-Dec-03 12:21N 68°54' E 017°25'77 9.9
2016-Dec-03 04:32N 68°12' E 014°29'6 6.4
2016-Dec-03 03:33N 68°09' E 014°13'6 6.4
2016-Dec-03 02:33N 68°06' E 013°58'8 7.8
2016-Dec-03 01:32N 68°04' E 013°38'4 3.9
2016-Dec-03 00:32N 68°08' E 013°34'0 0.0
2016-Dec-02 23:32N 68°08' E 013°34'1 0.9
2016-Dec-02 22:33N 68°08' E 013°37'1 0.9
2016-Dec-02 21:33N 68°08' E 013°34'13 5.7
2016-Dec-02 19:20N 67°56' E 013°47'6 7.1
2016-Dec-02 18:32N 67°51' E 013°53'7 7.2
2016-Dec-02 17:33N 67°45' E 014°02'7 7.2
2016-Dec-02 16:32N 67°38' E 014°10'2 1.0
2016-Dec-02 14:33N 67°36' E 014°13'1111.0
2016-Dec-02 13:33N 67°26' E 014°25'1110.7
2016-Dec-02 12:33N 67°16' E 014°14'1312.3
2016-Dec-02 11:31N 67°06' E 013°57'1313.1
2016-Dec-02 10:31N 66°58' E 013°30'4748.9
2016-Dec-02 09:33N 66°19' E 012°23'2723.6
2016-Dec-02 08:23N 66°40' E 013°07'2 2.5
2016-Dec-02 07:30N 66°39' E 013°02'1010.7
2016-Dec-02 06:33N 66°30' E 012°49'1110.7
2016-Dec-02 05:33N 66°24' E 012°28'6 6.3
2016-Dec-02 04:33N 66°18' E 012°23'1010.0
2016-Dec-02 03:33N 66°10' E 012°39'3332.5
2016-Dec-02 02:33N 65°39' E 012°16'7 7.0
2016-Dec-02 01:32N 65°32' E 012°13'6 6.5
2016-Dec-02 00:33N 65°26' E 012°09'7 7.3
2016-Dec-01 23:33N 65°19' E 012°01'8 7.6
2016-Dec-01 22:33N 65°12' E 011°53'7 6.9
2016-Dec-01 21:33N 65°06' E 011°47'7 7.0
2016-Dec-01 20:31N 65°00' E 011°37'3 2.9
2016-Dec-01 19:25N 64°58' E 011°33'910.6
2016-Dec-01 18:33N 64°52' E 011°16'134130.9
2016-Dec-01 17:32N 66°49' E 013°56'0 0.0
2016-Dec-01 16:33N 66°49' E 013°56'0 0.0
2016-Dec-01 15:33N 66°49' E 013°56'0 0.0
2016-Dec-01 14:33N 66°49' E 013°56'4 3.8
2016-Dec-01 13:32N 66°49' E 013°46'8 7.6
2016-Dec-01 12:32N 66°48' E 013°27'11 5.1
2016-Dec-01 10:26N 66°58' E 013°34'6 7.1
2016-Dec-01 09:32N 67°02' E 013°47'8 7.7
2016-Dec-01 08:33N 67°07' E 014°00'8 7.8
2016-Dec-01 07:32N 67°14' E 014°12'6 5.9
2016-Dec-01 06:33N 67°17' E 014°24'2 1.9
2016-Dec-01 05:33N 67°19' E 014°23'6 5.7
2016-Dec-01 04:33N 67°25' E 014°25'1 0.8
2016-Dec-01 03:32N 67°26' E 014°27'7 7.7
2016-Dec-01 02:33N 67°33' E 014°30'8 7.6
2016-Dec-01 01:33N 67°41' E 014°31'8 7.7
2016-Dec-01 00:33N 67°48' E 014°33'8 7.9
2016-Nov-30 23:33N 67°53' E 014°50'7 7.2
2016-Nov-30 22:33N 67°54' E 015°09'4 4.1
2016-Nov-30 21:33N 67°56' E 015°19'5 5.3
2016-Nov-30 20:32N 68°01' E 015°20'5 5.1
2016-Nov-30 19:33N 68°06' E 015°18'8 7.9
2016-Nov-30 18:33N 68°12' E 015°32'8 7.8
2016-Nov-30 17:33N 68°17' E 015°48'7 6.8
2016-Nov-30 16:33N 68°21' E 016°02'247250.1
2016-Nov-30 15:33N 64°41' E 011°22'3 3.5
2016-Nov-30 14:34N 64°43' E 011°28'0 0.0
2016-Nov-30 13:33N 64°43' E 011°28'0 0.0
2016-Nov-30 12:34N 64°43' E 011°28'9 9.1
2016-Nov-30 11:33N 64°44' E 011°07'9 8.6
2016-Nov-30 10:33N 64°52' E 011°16'0 0.4
2016-Nov-30 09:34N 64°52' E 011°17'1 1.1
2016-Nov-30 08:33N 64°52' E 011°15'0 0.1
2016-Nov-30 07:33N 64°52' E 011°15'0 0.0
2016-Nov-30 06:34N 64°52' E 011°15'7 6.9
2016-Nov-30 05:34N 64°56' E 011°27'1010.3
2016-Nov-30 04:33N 65°03' E 011°44'238236.6
2016-Nov-30 03:33N 68°34' E 016°30'3 2.7
2016-Nov-30 02:33N 68°36' E 016°33'7 7.2
2016-Nov-30 01:33N 68°42' E 016°42'8 8.1
2016-Nov-30 00:33N 68°50' E 016°52'8 8.5
2016-Nov-29 23:33N 68°57' E 017°06'8 7.8
2016-Nov-29 22:32N 69°03' E 017°20'7 7.4
2016-Nov-29 21:33N 69°07' E 017°36'9 8.5
2016-Nov-29 20:33N 69°10' E 017°58'204202.9
2016-Nov-29 19:33N 66°21' E 012°57'226105.1
2016-Nov-29 17:24N 69°31' E 018°21'8 8.3
2016-Nov-29 16:27N 69°33' E 018°43'6 7.1
2016-Nov-29 15:33N 69°38' E 018°56'8 8.1
2016-Nov-29 14:33N 69°45' E 019°07'7 7.1
2016-Nov-29 13:33N 69°48' E 019°25'8 7.7
2016-Nov-29 12:33N 69°51' E 019°45'7 7.4
2016-Nov-29 11:33N 69°56' E 020°02'8 7.5
2016-Nov-29 10:33N 69°60' E 020°21'7 7.2
2016-Nov-29 09:33N 70°02' E 020°41'7 7.4
2016-Nov-29 08:32N 70°07' E 020°58'7 7.5
2016-Nov-29 07:33N 70°13' E 021°08'7 7.3
2016-Nov-29 06:33N 70°18' E 021°24'5 4.7
2016-Nov-29 05:33N 70°19' E 021°38'4 3.8
2016-Nov-29 04:33N 70°17' E 021°46'7 6.8
2016-Nov-29 03:33N 70°20' E 022°04'6 5.6
2016-Nov-29 02:33N 70°17' E 022°18'3 3.0
2016-Nov-29 01:33N 70°14' E 022°21'0 0.0
2016-Nov-29 00:32N 70°14' E 022°21'0 0.0
2016-Nov-28 23:33N 70°14' E 022°21'0 0.0
2016-Nov-28 22:32N 70°14' E 022°21'278245.9
2016-Nov-28 21:24N 66°55' E 013°30'7 8.5
2016-Nov-28 20:33N 66°60' E 013°43'1110.9
2016-Nov-28 19:33N 67°08' E 014°01'1110.8
2016-Nov-28 18:33N 67°16' E 014°19'3 3.2
2016-Nov-28 17:33N 67°19' E 014°23'6 5.7
2016-Nov-28 16:33N 67°25' E 014°25'20291.4
2016-Nov-28 14:21N 69°60' E 020°22'6 7.9
2016-Nov-28 13:33N 69°57' E 020°06'8 8.1
2016-Nov-28 12:33N 69°52' E 019°48'8 8.3
2016-Nov-28 11:32N 69°48' E 019°26'8 8.1
2016-Nov-28 10:32N 69°44' E 019°05'4 4.4
2016-Nov-28 09:33N 69°41' E 018°59'0 0.2
2016-Nov-28 08:33N 69°41' E 018°59'2 2.2
2016-Nov-28 07:33N 69°39' E 018°58'8 7.9
2016-Nov-28 06:32N 69°33' E 018°41'8 7.8
2016-Nov-28 05:33N 69°30' E 018°21'7 7.4
2016-Nov-28 04:33N 69°25' E 018°07'7 6.7
2016-Nov-28 03:33N 69°19' E 017°59'4 4.4
2016-Nov-28 02:33N 69°14' E 017°58'1 0.7
2016-Nov-28 01:33N 69°14' E 017°59'4 4.1
2016-Nov-28 00:33N 69°10' E 017°55'8 7.5
2016-Nov-27 23:32N 69°06' E 017°36'3026.8
2016-Nov-27 22:25N 68°43' E 016°43'2611.3
2016-Nov-27 20:07N 69°04' E 017°23'611.0
2016-Nov-27 19:33N 69°07' E 017°38'9 9.4
2016-Nov-27 18:33N 69°13' E 017°59'3938.9
2016-Nov-27 17:33N 68°48' E 016°34'0 0.5
2016-Nov-27 16:33N 68°48' E 016°33'16 6.9
2016-Nov-27 14:15N 68°58' E 015°60'6 8.0
2016-Nov-27 13:32N 68°59' E 015°44'5 4.9
2016-Nov-27 12:32N 68°55' E 015°35'8 7.9
2016-Nov-27 11:32N 68°48' E 015°26'6 5.9
2016-Nov-27 10:32N 68°42' E 015°25'0 0.0
2016-Nov-27 09:33N 68°42' E 015°25'21 6.6
2016-Nov-27 06:25N 68°23' E 015°04'10 8.0
2016-Nov-27 05:10N 68°14' E 014°54'4 6.9
2016-Nov-27 04:32N 68°14' E 014°42'3 2.8
2016-Nov-27 03:33N 68°14' E 014°35'3 2.8
2016-Nov-27 02:33N 68°12' E 014°30'8 7.3
2016-Nov-27 01:32N 68°08' E 014°12'7 7.2
2016-Nov-27 00:32N 68°15' E 014°14'6 5.2
2016-Nov-26 23:24N 68°10' E 014°07'6 7.1
2016-Nov-26 22:33N 68°06' E 013°54'7 6.7
2016-Nov-26 21:33N 68°04' E 013°37'4 3.9
2016-Nov-26 20:33N 68°08' E 013°34'0 0.0
2016-Nov-26 19:33N 68°08' E 013°34'0 0.0
2016-Nov-26 18:33N 68°08' E 013°34'1 0.6
2016-Nov-26 17:32N 68°08' E 013°36'15 7.6
2016-Nov-26 15:32N 67°53' E 013°34'12642.4
2016-Nov-26 12:33N 69°14' E 017°59'9 9.2
2016-Nov-26 11:33N 69°07' E 017°40'  

Dump ship's entire track history